Time;durP1;ratioP1;P1;durP2;ratioP2;P2;SDS_P1;SDS_P2;PMS_P1;PMS_P2;Temp;Humidity;BMP_temperature;BMP_pressure;BME280_temperature;BME280_humidity;BME280_pressure;Samples;Min_cycle;Max_cycle;Signal;HPM_P1;HPM_P2
2024/02/16 00:00:20;;;;;;;38.78;22.73;;;;;;;9.65;90.76;100995.53;5091057;28;20110;-51
2024/02/16 00:02:49;;;;;;;41.10;22.60;;;;;;;9.63;91.40;100992.06;5091153;28;20181;-48
2024/02/16 00:05:18;;;;;;;36.30;22.17;;;;;;;9.68;91.16;100990.09;5092567;28;20044;-51
2024/02/16 00:07:47;;;;;;;36.60;21.90;;;;;;;9.63;90.63;101000.06;5092127;28;20089;-48
2024/02/16 00:10:20;;;;;;;36.40;22.80;;;;;;;9.38;92.16;100987.84;5091218;28;20054;-50
2024/02/16 00:12:48;;;;;;;39.28;22.08;;;;;;;9.37;91.81;100990.56;5090925;28;20043;-52
2024/02/16 00:15:16;;;;;;;37.97;21.92;;;;;;;9.30;91.25;100984.63;5090666;28;20390;-51
2024/02/16 00:17:45;;;;;;;35.70;21.75;;;;;;;9.27;91.48;100989.25;5090710;28;20416;-51
2024/02/16 00:20:18;;;;;;;36.88;21.50;;;;;;;9.29;91.31;100980.25;5090567;28;20139;-49
2024/02/16 00:22:49;;;;;;;;;;;;;;;9.40;90.81;100985.09;5089953;28;20124;-45
2024/02/16 00:25:20;;;;;;;36.90;21.60;;;;;;;9.32;90.61;100990.75;5090860;28;19942;-52
2024/02/16 00:27:53;;;;;;;37.08;21.75;;;;;;;9.40;90.10;100987.78;5093670;28;20059;-48
2024/02/16 00:30:24;;;;;;;38.35;22.50;;;;;;;9.25;91.08;100985.75;5094793;28;20101;-50
2024/02/16 00:32:56;;;;;;;37.33;21.95;;;;;;;9.21;91.50;100982.38;5094688;28;20044;-47
2024/02/16 00:35:24;;;;;;;35.05;21.13;;;;;;;9.33;91.11;100980.97;5094574;28;20048;-51
2024/02/16 00:37:56;;;;;;;37.30;22.45;;;;;;;9.39;91.29;100980.72;5094677;28;20040;-52
2024/02/16 00:40:26;;;;;;;36.92;21.40;;;;;;;9.47;90.44;100970.59;5094443;28;20051;-48
2024/02/16 00:42:54;;;;;;;36.58;20.73;;;;;;;9.47;90.06;100967.94;5094440;28;20083;-53
2024/02/16 00:45:26;;;;;;;35.20;19.70;;;;;;;9.50;89.95;100973.13;5094287;28;20048;-50
2024/02/16 00:47:55;;;;;;;38.58;21.02;;;;;;;9.58;89.40;100981.63;5094267;28;20073;-53
2024/02/16 00:50:25;;;;;;;33.50;20.00;;;;;;;9.44;89.85;100973.38;5094593;28;20131;-50
2024/02/16 00:52:59;;;;;;;34.95;20.10;;;;;;;9.49;89.40;100974.06;5094587;28;20044;-53
2024/02/16 00:55:27;;;;;;;37.15;21.02;;;;;;;9.49;89.17;100974.06;5094279;28;20230;-50
2024/02/16 00:57:57;;;;;;;34.53;20.25;;;;;;;9.54;89.42;100973.84;5092897;28;20044;-48
2024/02/16 01:00:26;;;;;;;34.75;20.73;;;;;;;9.54;88.48;100976.50;5093948;28;20075;-50
2024/02/16 01:02:54;;;;;;;32.22;19.90;;;;;;;9.44;88.74;100979.56;5094124;28;20428;-47
2024/02/16 01:05:23;;;;;;;40.15;20.75;;;;;;;9.48;89.04;100979.44;5093825;28;20405;-48
2024/02/16 01:07:51;;;;;;;33.45;20.20;;;;;;;9.52;89.33;100976.56;5093838;28;20056;-48
2024/02/16 01:10:22;;;;;;;33.60;21.00;;;;;;;9.42;90.80;100975.25;5093886;28;20449;-49
2024/02/16 01:12:58;;;;;;;37.00;21.80;;;;;;;9.40;91.94;100977.97;5093857;28;20056;-47
2024/02/16 01:15:27;;;;;;;38.78;23.25;;;;;;;9.39;92.98;100975.41;5094099;28;20048;-50
2024/02/16 01:17:56;;;;;;;38.85;22.58;;;;;;;9.34;93.68;100972.91;5094225;28;20094;-50
2024/02/16 01:20:24;;;;;;;40.05;23.60;;;;;;;9.29;94.19;100963.41;5094246;28;20081;-52
2024/02/16 01:22:53;;;;;;;41.15;22.58;;;;;;;9.30;94.32;100967.81;5094317;28;20048;-51
2024/02/16 01:25:25;;;;;;;37.25;22.20;;;;;;;9.28;94.02;100965.22;5093592;28;20061;-48
2024/02/16 01:27:54;;;;;;;35.17;21.45;;;;;;;9.21;93.68;100969.06;5093866;28;20131;-47
2024/02/16 01:30:25;;;;;;;41.00;21.25;;;;;;;9.15;94.11;100964.84;5093568;28;20044;-50
2024/02/16 01:32:53;;;;;;;36.65;21.50;;;;;;;9.00;95.48;100960.22;5093356;28;20557;-48
2024/02/16 01:35:24;;;;;;;38.45;21.85;;;;;;;9.04;95.84;100961.78;5093309;28;20048;-47
2024/02/16 01:37:53;;;;;;;35.55;21.15;;;;;;;9.15;94.95;100964.00;5091630;28;20040;-48
2024/02/16 01:40:25;;;;;;;35.00;21.23;;;;;;;9.25;94.37;100964.47;5092601;28;20474;-48
2024/02/16 01:42:57;;;;;;;40.15;21.90;;;;;;;9.23;93.64;100966.34;5093532;28;20051;-51
2024/02/16 01:45:25;;;;;;;36.25;21.00;;;;;;;9.03;94.60;100961.88;5093629;28;20052;-49
2024/02/16 01:47:58;;;;;;;34.10;20.90;;;;;;;9.08;94.64;100973.19;5093607;28;20040;-48
2024/02/16 01:50:29;;;;;;;37.05;21.58;;;;;;;9.08;94.14;100962.56;5092515;28;20044;-50
2024/02/16 01:53:03;;;;;;;37.08;21.85;;;;;;;9.02;94.72;100962.81;5092941;28;20481;-47
2024/02/16 01:55:33;;;;;;;36.55;21.35;;;;;;;9.04;94.43;100963.59;5093048;28;20075;-49
2024/02/16 01:58:02;;;;;;;34.72;21.30;;;;;;;9.04;94.69;100964.47;5092926;28;20131;-49
2024/02/16 02:00:30;;;;;;;36.60;20.85;;;;;;;9.02;95.05;100958.34;5092868;28;20085;-50
2024/02/16 02:03:02;;;;;;;37.28;21.67;;;;;;;9.02;95.07;100958.34;5091546;28;20078;-48
2024/02/16 02:05:30;;;;;;;35.78;20.25;;;;;;;8.91;96.11;100959.72;5093021;28;20047;-50
2024/02/16 02:07:59;;;;;;;39.35;21.67;;;;;;;8.93;96.18;100958.72;5092553;28;20072;-52
2024/02/16 02:10:28;;;;;;;35.85;20.92;;;;;;;8.97;95.50;100960.31;5092864;28;20131;-49
2024/02/16 02:12:57;;;;;;;37.00;21.80;;;;;;;8.96;95.78;100952.41;5092688;28;20192;-49
2024/02/16 02:15:29;;;;;;;40.25;21.02;;;;;;;8.96;96.05;100958.59;5092474;28;20607;-49
2024/02/16 02:17:59;;;;;;;38.80;21.58;;;;;;;8.89;96.47;100955.34;5092493;28;20481;-47
2024/02/16 02:20:27;;;;;;;34.75;21.42;;;;;;;8.83;97.30;100957.38;5092389;28;20500;-47
2024/02/16 02:22:58;;;;;;;39.17;21.30;;;;;;;8.81;97.46;100954.78;5092551;28;20370;-47
2024/02/16 02:25:28;;;;;;;34.60;20.88;;;;;;;8.85;97.27;100945.75;5092391;28;20454;-48
2024/02/16 02:27:58;;;;;;;34.35;20.33;;;;;;;8.89;96.29;100949.16;5092239;28;20361;-49
2024/02/16 02:30:26;;;;;;;35.58;21.05;;;;;;;8.76;97.52;100953.25;5092623;28;20044;-50
2024/02/16 02:32:54;;;;;;;35.22;21.52;;;;;;;8.83;96.80;100955.59;5092582;28;20052;-50
2024/02/16 02:35:22;;;;;;;35.70;20.70;;;;;;;8.69;97.08;100954.44;5092338;28;20040;-52
2024/02/16 02:37:52;;;;;;;36.50;20.25;;;;;;;8.70;96.67;100957.03;5092107;28;20056;-50
2024/02/16 02:40:22;;;;;;;29.90;17.95;;;;;;;8.65;95.52;100956.34;5091990;28;20493;-47
2024/02/16 02:42:51;;;;;;;36.10;20.08;;;;;;;8.69;94.75;100960.63;5092026;28;20135;-50
2024/02/16 02:45:19;;;;;;;35.55;19.02;;;;;;;8.65;94.50;100952.81;5092277;28;20138;-49
2024/02/16 02:47:47;;;;;;;36.83;20.27;;;;;;;8.68;94.72;100958.88;5091874;28;20040;-49
2024/02/16 02:50:16;;;;;;;34.33;19.55;;;;;;;8.70;94.53;100962.34;5092093;28;20485;-50
2024/02/16 02:52:46;;;;;;;32.88;19.33;;;;;;;8.63;94.15;100949.38;5091779;28;20139;-50
2024/02/16 02:55:15;;;;;;;32.60;19.33;;;;;;;8.58;93.40;100953.06;5091850;28;20507;-51
2024/02/16 02:57:44;;;;;;;31.20;18.85;;;;;;;8.57;93.74;100951.34;5091763;28;20048;-51
2024/02/16 03:00:20;;;;;;;32.63;18.88;;;;;;;8.42;94.33;100959.94;5091840;28;20592;-52
2024/02/16 03:02:52;;;;;;;33.78;20.02;;;;;;;8.48;94.08;100962.34;5091609;28;20044;-50
2024/02/16 03:05:21;;;;;;;37.40;19.65;;;;;;;8.52;94.53;100963.97;5091551;28;20066;-49
2024/02/16 03:07:51;;;;;;;33.28;19.35;;;;;;;8.56;94.13;100965.56;5091422;28;20040;-48
2024/02/16 03:10:23;;;;;;;31.92;19.58;;;;;;;8.52;94.16;100958.66;5091450;28;20138;-48
2024/02/16 03:12:54;;;;;;;34.08;20.05;;;;;;;8.46;95.55;100952.69;5091660;28;20044;-47
2024/02/16 03:15:22;;;;;;;35.75;19.95;;;;;;;8.37;95.62;100961.03;5091715;28;20051;-48
2024/02/16 03:17:51;;;;;;;37.17;19.42;;;;;;;8.35;96.42;100955.78;5091961;28;20166;-48
2024/02/16 03:20:23;;;;;;;35.10;19.92;;;;;;;8.29;96.36;100961.31;5091882;28;20417;-46
2024/02/16 03:22:51;;;;;;;33.05;19.27;;;;;;;8.28;96.59;100963.09;5092354;28;20044;-49
2024/02/16 03:25:20;;;;;;;33.83;18.88;;;;;;;8.27;97.10;100963.16;5094367;28;20101;-52
2024/02/16 03:27:53;;;;;;;34.15;19.55;;;;;;;8.38;96.75;100954.78;5091300;28;20044;-48
2024/02/16 03:30:22;;;;;;;31.25;19.17;;;;;;;8.25;97.65;100962.38;5091319;28;20572;-50
2024/02/16 03:32:51;;;;;;;33.45;20.17;;;;;;;8.11;99.05;100959.41;5091483;28;20401;-47
2024/02/16 03:35:22;;;;;;;36.55;20.00;;;;;;;8.08;100.00;100965.66;5091250;28;20134;-49
2024/02/16 03:37:50;;;;;;;37.95;20.92;;;;;;;8.08;99.88;100963.00;5090891;28;20083;-47
2024/02/16 03:40:24;;;;;;;35.40;19.50;;;;;;;7.99;100.00;100958.91;5090996;28;20119;-51
2024/02/16 03:42:54;;;;;;;35.17;19.55;;;;;;;7.98;100.00;100958.97;5090977;28;20047;-49
2024/02/16 03:45:23;;;;;;;37.72;20.33;;;;;;;8.00;100.00;100959.78;5090845;28;20051;-49
2024/02/16 03:47:52;;;;;;;37.08;19.58;;;;;;;8.09;99.90;100958.56;5090878;28;20079;-49
2024/02/16 03:50:22;;;;;;;37.40;20.42;;;;;;;8.14;99.37;100961.94;5090984;28;20150;-52
2024/02/16 03:52:50;;;;;;;37.42;20.60;;;;;;;8.12;99.15;100954.03;5091351;28;20113;-49
2024/02/16 03:55:22;;;;;;;35.83;21.02;;;;;;;8.10;99.23;100965.59;5073083;28;20123;-48
2024/02/16 03:57:50;;;;;;;37.47;21.67;;;;;;;8.16;98.87;100960.06;5090552;28;20078;-49
2024/02/16 04:00:23;;;;;;;36.35;20.65;;;;;;;8.14;98.03;100960.13;5091216;28;20047;-50
2024/02/16 04:02:56;;;;;;;35.42;20.95;;;;;;;8.19;98.29;100970.56;5090201;28;20084;-49
2024/02/16 04:05:24;;;;;;;35.63;20.77;;;;;;;8.01;99.12;100962.41;5089485;28;20048;-50
2024/02/16 04:07:53;;;;;;;34.60;20.52;;;;;;;7.92;100.00;100969.88;5090555;28;20515;-52
2024/02/16 04:10:24;;;;;;;35.70;19.85;;;;;;;7.88;100.00;100974.41;5090550;28;20097;-51
2024/02/16 04:12:53;;;;;;;35.17;20.80;;;;;;;7.89;100.00;100973.47;5090924;28;20047;-51
2024/02/16 04:15:24;;;;;;;36.95;22.08;;;;;;;7.88;100.00;100966.44;5090926;28;20105;-51
2024/02/16 04:17:53;;;;;;;35.67;20.58;;;;;;;7.92;100.00;100964.56;5090361;28;20513;-53
2024/02/16 04:20:23;;;;;;;40.55;22.40;;;;;;;7.86;100.00;100967.44;5090530;28;20047;-49
2024/02/16 04:22:54;;;;;;;34.33;21.10;;;;;;;7.81;100.00;100970.25;5090645;28;20040;-49
2024/02/16 04:25:24;;;;;;;39.33;21.23;;;;;;;7.64;100.00;100973.53;5091001;28;20449;-49
2024/02/16 04:27:56;;;;;;;37.80;21.08;;;;;;;7.71;100.00;100980.34;5090788;28;20446;-48
2024/02/16 04:30:29;;;;;;;41.53;23.90;;;;;;;7.51;100.00;100984.63;5089296;28;20047;-49
2024/02/16 04:32:58;;;;;;;40.50;24.50;;;;;;;7.39;100.00;100983.28;5090552;28;20409;-50
2024/02/16 04:35:27;;;;;;;40.72;24.55;;;;;;;7.55;100.00;100988.94;5090376;28;20048;-52
2024/02/16 04:37:56;;;;;;;45.88;26.45;;;;;;;7.48;100.00;100982.97;5090628;28;20385;-49
2024/02/16 04:40:24;;;;;;;45.95;25.92;;;;;;;7.54;100.00;100984.56;5090409;28;20051;-49
2024/02/16 04:42:53;;;;;;;44.90;26.83;;;;;;;7.38;100.00;100985.09;5090433;28;20127;-49
2024/02/16 04:45:21;;;;;;;48.08;28.15;;;;;;;7.44;100.00;100987.53;5090735;28;20071;-52
2024/02/16 04:47:50;;;;;;;45.10;26.50;;;;;;;7.46;100.00;100984.81;5090342;28;20047;-51
2024/02/16 04:50:22;;;;;;;46.15;25.63;;;;;;;7.43;100.00;100990.22;5090539;28;20052;-52
2024/02/16 04:52:53;;;;;;;44.92;27.13;;;;;;;7.34;100.00;100986.13;5090703;28;20044;-50
2024/02/16 04:55:24;;;;;;;50.80;28.58;;;;;;;7.17;100.00;100989.34;5090885;28;20044;-50
2024/02/16 04:57:53;;;;;;;44.63;27.25;;;;;;;7.12;100.00;100993.06;5091080;28;20063;-48
2024/02/16 05:00:21;;;;;;;48.53;27.52;;;;;;;7.22;100.00;100989.19;5089140;28;20520;-51
2024/02/16 05:02:57;;;;;;;52.28;28.45;;;;;;;7.27;100.00;100995.22;5090269;28;20100;-50
2024/02/16 05:05:25;;;;;;;48.53;28.38;;;;;;;7.28;100.00;100996.94;5090093;28;20079;-49
2024/02/16 05:07:53;;;;;;;49.33;28.67;;;;;;;7.28;100.00;100990.78;5090077;28;20087;-51
2024/02/16 05:10:22;;;;;;;52.13;28.25;;;;;;;7.35;100.00;100984.34;5090117;28;20051;-50
2024/02/16 05:12:50;;;;;;;47.58;27.98;;;;;;;7.30;100.00;100988.94;5089974;28;20362;-50
2024/02/16 05:15:18;;;;;;;49.22;28.98;;;;;;;7.20;100.00;100987.50;5093087;28;20048;-51
2024/02/16 05:17:51;;;;;;;47.05;28.13;;;;;;;7.15;100.00;100988.56;5093931;28;20044;-50
2024/02/16 05:20:25;;;;;;;;;;;;;;;7.11;100.00;100989.56;5094549;28;20068;-49
2024/02/16 05:22:56;;;;;;;51.78;28.63;;;;;;;7.13;100.00;100993.03;5093977;28;19920;-53
2024/02/16 05:25:28;;;;;;;50.58;30.10;;;;;;;7.16;100.00;100992.06;5092555;28;20468;-49
2024/02/16 05:27:56;;;;;;;54.55;30.17;;;;;;;7.12;100.00;100995.72;5093950;28;20396;-50
2024/02/16 05:30:25;;;;;;;51.13;28.77;;;;;;;7.09;100.00;100998.50;5092641;28;20400;-48
2024/02/16 05:32:58;;;;;;;52.47;30.73;;;;;;;6.93;100.00;100997.25;5092657;28;20048;-52
2024/02/16 05:35:33;;;;;;;50.22;28.50;;;;;;;7.03;100.00;101004.00;5093720;28;20185;-49
2024/02/16 05:38:10;;;;;;;54.78;29.55;;;;;;;7.13;100.00;100994.81;5093443;28;20130;-52
2024/02/16 05:40:53;;;;;;;49.70;29.10;;;;;;;7.07;100.00;100998.56;5093984;28;20135;-49
2024/02/16 05:43:23;;;;;;;53.25;28.88;;;;;;;7.06;100.00;100998.59;5094216;28;20051;-50
2024/02/16 05:45:51;;;;;;;50.03;29.20;;;;;;;7.02;100.00;101000.47;5093766;28;20055;-53
2024/02/16 05:48:21;;;;;;;53.40;28.58;;;;;;;6.88;100.00;101010.69;5094253;28;20083;-47
2024/02/16 05:50:51;;;;;;;48.70;29.13;;;;;;;6.87;100.00;101006.31;5093285;28;20044;-51
2024/02/16 05:53:20;;;;;;;53.05;29.88;;;;;;;6.93;100.00;101015.84;5093563;28;20153;-47
2024/02/16 05:55:49;;;;;;;61.85;30.73;;;;;;;6.94;100.00;101007.81;5093505;28;20139;-48
2024/02/16 05:58:18;;;;;;;54.83;30.42;;;;;;;6.85;100.00;101014.31;5093351;28;20052;-50
2024/02/16 06:00:48;;;;;;;48.55;28.52;;;;;;;6.82;100.00;101014.41;5093279;28;20078;-53
2024/02/16 06:03:16;;;;;;;51.40;29.02;;;;;;;6.86;100.00;101010.75;5093198;28;20441;-49
2024/02/16 06:05:47;;;;;;;52.08;28.95;;;;;;;6.87;100.00;101023.09;5092972;28;20040;-50
2024/02/16 06:08:20;;;;;;;49.33;28.70;;;;;;;6.93;100.00;101010.53;5093541;28;20070;-50
2024/02/16 06:10:53;;;;;;;55.10;29.67;;;;;;;6.95;100.00;101019.28;5091538;28;20072;-50
2024/02/16 06:13:22;;;;;;;51.55;28.45;;;;;;;6.98;100.00;101022.72;5093052;28;20080;-50
2024/02/16 06:15:50;;;;;;;55.67;30.85;;;;;;;7.07;100.00;101018.91;5091829;28;20420;-47
2024/02/16 06:18:19;;;;;;;52.28;28.77;;;;;;;7.13;100.00;101030.16;5093113;28;20048;-51
2024/02/16 06:20:52;;;;;;;59.45;28.88;;;;;;;7.04;100.00;101034.91;5092862;28;20044;-49
2024/02/16 06:23:23;;;;;;;49.55;28.08;;;;;;;6.95;100.00;101027.25;5092699;28;20091;-49
2024/02/16 06:25:51;;;;;;;50.28;28.85;;;;;;;6.92;100.00;101030.00;5092300;28;20072;-50
2024/02/16 06:28:20;;;;;;;53.42;29.88;;;;;;;6.83;100.00;101021.44;5091233;28;20616;-53
2024/02/16 06:30:48;;;;;;;51.72;28.65;;;;;;;6.91;100.00;101033.59;5092918;28;20419;-50
2024/02/16 06:33:22;;;;;;;53.58;29.85;;;;;;;6.71;100.00;101042.19;5092260;28;20210;-51
2024/02/16 06:35:51;;;;;;;53.58;29.55;;;;;;;6.96;100.00;101044.94;5091982;28;20048;-53
2024/02/16 06:38:20;;;;;;;47.63;28.63;;;;;;;6.91;100.00;101052.16;5092332;28;20070;-50
2024/02/16 06:40:54;;;;;;;47.63;27.48;;;;;;;6.87;100.00;101049.59;5091254;28;20425;-49
2024/02/16 06:43:23;;;;;;;48.53;27.48;;;;;;;6.71;100.00;101052.78;5093329;28;20044;-53
2024/02/16 06:45:51;;;;;;;52.60;28.40;;;;;;;6.86;100.00;101053.19;5092875;28;20040;-49
2024/02/16 06:48:20;;;;;;;46.28;26.90;;;;;;;7.05;100.00;101055.25;5092220;28;20051;-50
2024/02/16 06:50:49;;;;;;;47.80;26.55;;;;;;;7.14;100.00;101057.56;5092220;28;20051;-51
2024/02/16 06:53:18;;;;;;;45.90;26.13;;;;;;;7.13;100.00;101059.34;5092260;28;20044;-50
2024/02/16 06:55:47;;;;;;;45.33;26.80;;;;;;;6.93;100.00;101064.44;5091868;28;20379;-52
2024/02/16 06:58:16;;;;;;;46.22;25.88;;;;;;;7.14;100.00;101069.06;5092270;28;20047;-51
2024/02/16 07:00:44;;;;;;;51.03;26.85;;;;;;;7.28;100.00;101071.25;5092004;28;20138;-51
2024/02/16 07:03:16;;;;;;;44.55;26.17;;;;;;;7.26;100.00;101074.88;5092160;28;20207;-52
2024/02/16 07:05:44;;;;;;;41.05;25.15;;;;;;;7.49;100.00;101076.75;5091927;28;20047;-48
2024/02/16 07:08:13;;;;;;;44.60;24.85;;;;;;;7.43;100.00;101084.00;5090625;28;20052;-48
2024/02/16 07:10:41;;;;;;;45.67;24.77;;;;;;;7.36;100.00;101084.28;5091815;28;20086;-47
2024/02/16 07:13:10;;;;;;;41.83;22.92;;;;;;;7.45;100.00;101084.81;5091667;28;20052;-47
2024/02/16 07:15:40;;;;;;;40.45;23.85;;;;;;;7.54;100.00;101085.44;5090457;28;20130;-53
2024/02/16 07:18:09;;;;;;;42.22;24.38;;;;;;;7.75;100.00;101079.38;5091754;28;20044;-51
2024/02/16 07:20:38;;;;;;;40.33;24.65;;;;;;;7.78;100.00;101081.03;5091565;28;20052;-50
2024/02/16 07:23:06;;;;;;;42.22;24.73;;;;;;;7.77;100.00;101080.19;5090694;28;20095;-48
2024/02/16 07:25:35;;;;;;;42.17;24.67;;;;;;;7.97;100.00;101080.31;5091792;28;20052;-48
2024/02/16 07:28:03;;;;;;;46.55;25.40;;;;;;;7.80;100.00;101087.16;5091154;28;20526;-49
2024/02/16 07:30:32;;;;;;;42.20;24.70;;;;;;;7.78;100.00;101087.22;5091505;28;20071;-48
2024/02/16 07:33:11;;;;;;;45.58;25.00;;;;;;;7.90;100.00;101083.25;5091249;28;20119;-50
2024/02/16 07:35:40;;;;;;;47.75;25.55;;;;;;;8.12;100.00;101080.69;5091242;28;20048;-47
2024/02/16 07:38:08;;;;;;;44.40;25.05;;;;;;;8.08;100.00;101084.38;5091083;28;20428;-48
2024/02/16 07:40:40;;;;;;;45.17;25.35;;;;;;;8.30;100.00;101082.69;5091358;28;20052;-49
2024/02/16 07:43:08;;;;;;;38.80;23.38;;;;;;;8.33;99.49;101079.91;5091363;28;20052;-53
2024/02/16 07:45:39;;;;;;;42.25;23.52;;;;;;;8.15;99.51;101085.91;5091252;28;20040;-50
2024/02/16 07:48:08;;;;;;;40.75;23.65;;;;;;;8.01;100.00;101084.63;5091294;28;20056;-49
2024/02/16 07:50:38;;;;;;;43.47;24.70;;;;;;;8.27;99.46;101085.44;5090775;28;20457;-48
2024/02/16 07:53:07;;;;;;;45.35;23.88;;;;;;;8.33;98.78;101079.91;5090534;28;20077;-50
2024/02/16 07:55:35;;;;;;;44.03;24.02;;;;;;;8.43;99.33;101081.31;5090761;28;20044;-50
2024/02/16 07:58:04;;;;;;;37.50;22.23;;;;;;;8.64;95.88;101076.09;5090681;28;20052;-49
2024/02/16 08:00:33;;;;;;;40.65;21.95;;;;;;;8.81;94.82;101085.16;5090921;28;20418;-48
2024/02/16 08:03:02;;;;;;;42.08;23.20;;;;;;;8.82;94.09;101075.38;5091148;28;20052;-48
2024/02/16 08:05:30;;;;;;;36.17;21.83;;;;;;;8.70;93.06;101074.06;5090646;28;20090;-49
2024/02/16 08:08:00;;;;;;;36.83;21.13;;;;;;;8.66;91.68;101061.78;5090517;28;20093;-49
2024/02/16 08:10:29;;;;;;;37.35;21.80;;;;;;;9.03;90.66;101065.66;5090427;28;20123;-48
2024/02/16 08:13:02;;;;;;;32.78;19.77;;;;;;;9.13;89.14;101070.53;5090481;28;20051;-49
2024/02/16 08:15:31;;;;;;;34.17;18.77;;;;;;;9.23;87.18;101067.47;5090668;28;20040;-51
2024/02/16 08:17:59;;;;;;;34.05;19.90;;;;;;;9.41;86.07;101072.91;5090340;28;20051;-46
2024/02/16 08:20:28;;;;;;;33.35;18.23;;;;;;;9.59;83.89;101071.25;5090479;28;20087;-50
2024/02/16 08:23:07;;;;;;;30.13;17.58;;;;;;;9.62;82.98;101071.13;5090582;28;20048;-48
2024/02/16 08:25:36;;;;;;;32.90;16.90;;;;;;;9.54;80.32;101072.38;5090363;28;20044;-50
2024/02/16 08:28:05;;;;;;;30.65;17.23;;;;;;;9.72;80.94;101067.13;5090790;28;20047;-47
2024/02/16 08:30:35;;;;;;;27.67;16.73;;;;;;;9.98;80.58;101067.78;5090644;28;20052;-47
2024/02/16 08:33:06;;;;;;;29.75;17.10;;;;;;;10.13;79.29;101069.72;5090432;28;20401;-50
2024/02/16 08:35:34;;;;;;;29.35;17.20;;;;;;;10.23;78.42;101067.56;5090461;28;20040;-50
2024/02/16 08:38:02;;;;;;;28.52;16.77;;;;;;;10.17;77.35;101066.00;5101868;28;20059;-51
2024/02/16 08:40:32;;;;;;;29.15;16.15;;;;;;;9.99;77.13;101073.03;5110591;28;20165;-51
2024/02/16 08:43:03;;;;;;;26.10;16.17;;;;;;;10.01;76.89;101078.28;5110864;28;20044;-48
2024/02/16 08:45:36;;;;;;;27.67;16.48;;;;;;;9.98;75.71;101070.44;5111395;28;20052;-49
2024/02/16 08:48:08;;;;;;;27.20;15.90;;;;;;;10.20;74.82;101076.53;5112568;28;20067;-49
2024/02/16 08:50:37;;;;;;;30.27;16.45;;;;;;;10.34;73.86;101077.75;5114125;28;20062;-48
2024/02/16 08:53:05;;;;;;;26.17;15.27;;;;;;;10.51;73.19;101077.81;5114477;28;20446;-47
2024/02/16 08:55:37;;;;;;;28.13;16.15;;;;;;;10.77;73.06;101069.44;5112836;28;20331;-49
2024/02/16 08:58:08;;;;;;;21.92;13.20;;;;;;;10.80;70.69;101079.97;5114148;28;20349;-47
2024/02/16 09:00:38;;;;;;;21.20;11.30;;;;;;;10.83;68.68;101068.31;5113835;28;20512;-47
2024/02/16 09:03:08;;;;;;;17.55;9.73;;;;;;;10.65;65.12;101064.69;5113547;28;20109;-46
2024/02/16 09:05:36;;;;;;;16.25;8.73;;;;;;;10.69;63.83;101065.41;5113745;28;20039;-50
2024/02/16 09:08:11;;;;;;;15.65;9.35;;;;;;;10.76;63.92;101078.38;5113679;28;20039;-49
2024/02/16 09:10:41;;;;;;;18.80;10.55;;;;;;;10.84;63.33;101078.03;5113827;28;20043;-48
2024/02/16 09:13:10;;;;;;;15.75;9.82;;;;;;;10.84;62.94;101073.56;5113488;28;20127;-48
2024/02/16 09:15:38;;;;;;;17.33;9.75;;;;;;;10.82;62.84;101072.78;5114106;28;20082;-49
2024/02/16 09:18:07;;;;;;;15.70;9.85;;;;;;;10.92;61.95;101072.34;5112888;28;20036;-49
2024/02/16 09:20:35;;;;;;;16.85;9.52;;;;;;;11.06;61.39;101077.84;5113272;28;20056;-47
2024/02/16 09:23:06;;;;;;;17.02;9.55;;;;;;;11.13;61.52;101071.28;5113826;28;20039;-50
2024/02/16 09:25:35;;;;;;;15.13;9.63;;;;;;;10.95;62.86;101082.84;5113762;27;20595;-50
2024/02/16 09:28:05;;;;;;;19.35;11.07;;;;;;;11.13;62.96;101076.63;5113844;28;20093;-48
2024/02/16 09:30:40;;;;;;;19.02;10.02;;;;;;;11.25;62.39;101076.00;5113612;28;20140;-50
2024/02/16 09:33:14;;;;;;;18.98;10.95;;;;;;;11.34;60.95;101075.53;5113659;28;20039;-50
2024/02/16 09:35:43;;;;;;;17.27;10.45;;;;;;;11.35;60.87;101066.56;5113692;27;20052;-48
2024/02/16 09:38:11;;;;;;;17.58;10.63;;;;;;;11.34;60.84;101080.88;5113513;28;20081;-48
2024/02/16 09:40:41;;;;;;;18.13;10.73;;;;;;;11.40;60.83;101080.59;5113360;28;20413;-48
2024/02/16 09:43:28;;;;;;;21.17;10.50;;;;;;;11.36;61.80;101079.00;5113605;28;20093;-52
2024/02/16 09:45:57;;;;;;;18.00;10.30;;;;;;;11.46;60.06;101090.06;5113798;28;20101;-57
2024/02/16 09:48:27;;;;;;;19.13;9.77;;;;;;;11.51;60.63;101087.19;5113595;28;20450;-51
2024/02/16 09:51:01;;;;;;;16.88;9.98;;;;;;;11.72;60.55;101081.59;5113695;28;20138;-47
2024/02/16 09:53:35;;;;;;;24.27;11.50;;;;;;;11.54;60.97;101087.03;5113734;28;20051;-48
2024/02/16 09:56:10;;;;;;;18.55;10.30;;;;;;;11.71;59.94;101084.34;5113611;28;20100;-49
2024/02/16 09:58:43;;;;;;;23.80;10.98;;;;;;;11.84;60.01;101087.28;5110063;28;20040;-48
2024/02/16 10:01:20;;;;;;;18.58;10.90;;;;;;;11.82;59.82;101084.69;5109293;28;20093;-47
2024/02/16 10:03:49;;;;;;;18.08;11.50;;;;;;;11.90;60.01;101084.28;5112516;27;20066;-48
2024/02/16 10:06:20;;;;;;;35.97;16.88;;;;;;;11.62;61.09;101074.13;5110666;28;20116;-49
2024/02/16 10:08:50;;;;;;;21.85;11.90;;;;;;;11.59;61.80;101079.66;5111486;28;20457;-48
2024/02/16 10:11:20;;;;;;;20.13;11.52;;;;;;;11.55;61.51;101080.72;5105594;28;20050;-51
2024/02/16 10:13:57;;;;;;;20.30;11.82;;;;;;;11.71;60.96;101071.00;5112192;28;20489;-48
2024/02/16 10:16:28;;;;;;;19.83;10.85;;;;;;;11.58;61.33;101072.53;5112715;28;20109;-51
2024/02/16 10:18:58;;;;;;;16.27;10.20;;;;;;;11.52;60.97;101072.88;5110858;28;20040;-49
2024/02/16 10:21:28;;;;;;;14.07;9.00;;;;;;;11.52;60.81;101073.75;5112152;27;20075;-49
2024/02/16 10:24:02;;;;;;;12.63;8.68;;;;;;;11.41;62.06;101073.44;5111721;28;20043;-49
2024/02/16 10:26:37;;;;;;;14.77;9.20;;;;;;;11.56;61.55;101066.44;5112428;28;20062;-48
2024/02/16 10:29:09;;;;;;;14.23;9.07;;;;;;;11.64;61.40;101061.56;5110663;28;20040;-50
2024/02/16 10:31:38;;;;;;;16.05;9.25;;;;;;;11.93;60.94;101052.03;5112938;27;20135;-50
2024/02/16 10:34:09;;;;;;;15.25;9.15;;;;;;;12.00;60.31;101058.81;5111126;28;20051;-48
2024/02/16 10:36:41;;;;;;;14.20;9.35;;;;;;;11.84;60.86;101053.38;5112938;28;20104;-53
2024/02/16 10:39:11;;;;;;;17.45;9.95;;;;;;;11.87;60.85;101050.56;5113407;28;20040;-49
2024/02/16 10:41:42;;;;;;;14.70;8.77;;;;;;;12.03;61.09;101048.78;5110438;28;20500;-49
2024/02/16 10:44:13;;;;;;;16.02;9.70;;;;;;;11.88;61.68;101048.75;5108091;28;20040;-49
2024/02/16 10:46:42;;;;;;;13.43;9.10;;;;;;;11.96;61.82;101042.03;5111283;28;20050;-47
2024/02/16 10:49:11;;;;;;;16.65;9.75;;;;;;;12.06;60.84;101036.19;5112487;28;20064;-50
2024/02/16 10:51:48;;;;;;;16.08;9.35;;;;;;;11.67;62.88;101034.66;5108916;28;20070;-49
2024/02/16 10:54:20;;;;;;;15.95;8.88;;;;;;;11.46;63.15;101032.16;5112094;28;20097;-51
2024/02/16 10:56:48;;;;;;;12.88;8.68;;;;;;;11.49;63.45;101036.50;5112395;28;20438;-52
2024/02/16 10:59:18;;;;;;;14.18;8.43;;;;;;;11.80;62.96;101029.59;5112561;28;20070;-56
2024/02/16 11:01:49;;;;;;;14.90;9.07;;;;;;;11.89;62.59;101021.94;5109738;28;20058;-48
2024/02/16 11:04:20;;;;;;;16.08;9.00;;;;;;;11.94;62.54;101017.19;5108948;28;20124;-50
2024/02/16 11:06:50;;;;;;;15.68;8.75;;;;;;;12.03;62.65;101019.38;5111998;28;20047;-50
2024/02/16 11:09:27;;;;;;;18.92;9.80;;;;;;;12.07;62.94;101017.44;5110174;28;20047;-50
2024/02/16 11:12:02;;;;;;;16.23;9.73;;;;;;;11.98;62.28;101018.78;5110319;28;20036;-50
2024/02/16 11:14:39;;;;;;;16.95;9.82;;;;;;;12.00;63.35;101008.88;5111509;28;20497;-52
2024/02/16 11:17:15;;;;;;;18.27;9.20;;;;;;;12.16;63.24;101005.34;5112568;28;20052;-50
2024/02/16 11:19:44;;;;;;;17.45;8.95;;;;;;;12.18;63.56;101003.47;5109927;28;20079;-47
2024/02/16 11:22:17;;;;;;;15.93;9.60;;;;;;;12.11;62.96;100997.56;5111357;28;20054;-48
2024/02/16 11:24:46;;;;;;;18.30;10.82;;;;;;;11.72;63.86;101001.41;5111257;28;20049;-51
2024/02/16 11:27:18;;;;;;;40.75;21.77;;;;;;;11.89;64.73;100997.88;5110099;28;20047;-50